SPHO/AYP METAR and TAF weather

Enter ICAO airport designator
Station Type Date Time Source
SPHO METAR 2021/09/19 23:00 UTC NOAA

SPHO 192300Z 13006KT 9999 FEW050 20/01 Q1023 RMK PP000


Station Type Date Time Source
SPHO Decoded METAR 2021/09/19 23:00 UTC NOAA

Ayacucho, Peru (SPHO) 13-08S 074-13W 2749M
Sep 19, 2021 - 07:00 PM EDT / 2021.09.19 2300 UTC
Wind: from the SE (130 degrees) at 7 MPH (6 KT):0
Visibility: greater than 7 mile(s):0
Sky conditions: mostly clear
Temperature: 68 F (20 C)
Dew Point: 33 F (1 C)
Relative Humidity: 28%
Pressure (altimeter): 30.21 in. Hg (1023 hPa)
ob: SPHO 192300Z 13006KT 9999 FEW050 20/01 Q1023 RMK PP000
cycle: 23

Station Type Date Time Source
SPHO TAF 2021/09/19 18:33 UTC NOAA

TAF SPHO 191700Z 1918/2018 10004KT 9999 SCT050 TX24/1919Z TN11/2011Z
TEMPO 1918/1923 15012KT SCT045TCU SCT070
TEMPO 2001/2002 RA
FM201000 15003KT 9999 SCT020 BKN100

Example: see airport list